DEDXH EDLN-EDDG
Flight info
| Callsign | DEDXH |
|---|---|
| Flight time | 0h 40m |
| Altitude | 2000 |
| Route | VFR |
| Aircraft | C172/L-VGD/A |
Departure
| Time | 2026-05-04 07:12 |
|---|---|
| Airport | Mönchengladbach Airport (EDLN) |
Arrival
| Time | 2026-05-04 07:52 |
|---|---|
| Airport | Münster Osnabrück Airport (EDDG) |
| Time | Latitude | Longitude | Altitude | Speed | Heading |
|---|---|---|---|---|---|
| 2026-05-04 07:06 | 51.23184 | 6.49716 | 124 ft | 0 kts | 36° |
| 2026-05-04 07:08 | 51.23301 | 6.49699 | 124 ft | 1 kts | 32° |
| 2026-05-04 07:09 | 51.23343 | 6.49758 | 120 ft | 15 kts | 60° |
| 2026-05-04 07:09 | 51.23283 | 6.49957 | 121 ft | 38 kts | 129° |
| 2026-05-04 07:09 | 51.23034 | 6.50444 | 132 ft | 71 kts | 131° |
| 2026-05-04 07:09 | 51.22694 | 6.51000 | 303 ft | 69 kts | 137° |
| 2026-05-04 07:10 | 51.22328 | 6.51552 | 453 ft | 75 kts | 140° |
| 2026-05-04 07:10 | 51.22111 | 6.52271 | 621 ft | 81 kts | 79° |
| 2026-05-04 07:12 | 51.26469 | 6.53566 | 1494 ft | 108 kts | 11° |
| 2026-05-04 07:12 | 51.27220 | 6.53740 | 1496 ft | 110 kts | 4° |
| 2026-05-04 07:12 | 51.27986 | 6.53868 | 1499 ft | 111 kts | 4° |
| 2026-05-04 07:12 | 51.28743 | 6.53993 | 1496 ft | 110 kts | 5° |
| 2026-05-04 07:13 | 51.29501 | 6.54113 | 1492 ft | 109 kts | 5° |
| 2026-05-04 07:13 | 51.30245 | 6.54317 | 1490 ft | 109 kts | 19° |
| 2026-05-04 07:13 | 51.30946 | 6.54723 | 1606 ft | 105 kts | 19° |
| 2026-05-04 07:14 | 51.33667 | 6.56450 | 1987 ft | 114 kts | 21° |
| 2026-05-04 07:14 | 51.34417 | 6.56940 | 1988 ft | 117 kts | 22° |
| 2026-05-04 07:15 | 51.35142 | 6.57413 | 1977 ft | 112 kts | 21° |
| 2026-05-04 07:15 | 51.35852 | 6.57877 | 1977 ft | 108 kts | 21° |
| 2026-05-04 07:15 | 51.36543 | 6.58327 | 1976 ft | 106 kts | 21° |
| 2026-05-04 07:15 | 51.37224 | 6.58772 | 1977 ft | 105 kts | 21° |
| 2026-05-04 07:16 | 51.37893 | 6.59209 | 1976 ft | 103 kts | 21° |
| 2026-05-04 07:16 | 51.38552 | 6.59639 | 1976 ft | 101 kts | 21° |
| 2026-05-04 07:16 | 51.39205 | 6.60065 | 1975 ft | 101 kts | 22° |
| 2026-05-04 07:16 | 51.39856 | 6.60489 | 1978 ft | 100 kts | 21° |
| 2026-05-04 07:17 | 51.40503 | 6.60912 | 1979 ft | 100 kts | 21° |
| 2026-05-04 07:17 | 51.41137 | 6.61327 | 1980 ft | 99 kts | 21° |
| 2026-05-04 07:17 | 51.41774 | 6.61745 | 1981 ft | 99 kts | 21° |
| 2026-05-04 07:17 | 51.42415 | 6.62165 | 1980 ft | 100 kts | 21° |
| 2026-05-04 07:18 | 51.43058 | 6.62587 | 1981 ft | 100 kts | 21° |
| 2026-05-04 07:18 | 51.43703 | 6.63008 | 1978 ft | 100 kts | 21° |
| 2026-05-04 07:18 | 51.44345 | 6.63429 | 1976 ft | 99 kts | 21° |
| 2026-05-04 07:18 | 51.44982 | 6.63846 | 1973 ft | 98 kts | 21° |
| 2026-05-04 07:19 | 51.45615 | 6.64261 | 1976 ft | 98 kts | 21° |
| 2026-05-04 07:19 | 51.46145 | 6.64899 | 1981 ft | 97 kts | 49° |
| 2026-05-04 07:19 | 51.46626 | 6.65659 | 1979 ft | 97 kts | 45° |
| 2026-05-04 07:19 | 51.47102 | 6.66422 | 1979 ft | 97 kts | 45° |
| 2026-05-04 07:20 | 51.47582 | 6.67192 | 1982 ft | 98 kts | 45° |
| 2026-05-04 07:20 | 51.48066 | 6.67968 | 1986 ft | 99 kts | 45° |
| 2026-05-04 07:20 | 51.48553 | 6.68750 | 1987 ft | 99 kts | 45° |
| 2026-05-04 07:20 | 51.49043 | 6.69533 | 1989 ft | 100 kts | 45° |
| 2026-05-04 07:22 | 51.52491 | 6.75061 | 1973 ft | 99 kts | 46° |
| 2026-05-04 07:22 | 51.52980 | 6.75845 | 1982 ft | 100 kts | 46° |
| 2026-05-04 07:23 | 51.53479 | 6.76646 | 1985 ft | 102 kts | 46° |
| 2026-05-04 07:23 | 51.53982 | 6.77457 | 1993 ft | 103 kts | 46° |
| 2026-05-04 07:23 | 51.54487 | 6.78270 | 1993 ft | 105 kts | 46° |
| 2026-05-04 07:23 | 51.55004 | 6.79101 | 1989 ft | 105 kts | 46° |
| 2026-05-04 07:24 | 51.55524 | 6.79937 | 1989 ft | 106 kts | 46° |
| 2026-05-04 07:24 | 51.56044 | 6.80774 | 1991 ft | 106 kts | 46° |
| 2026-05-04 07:24 | 51.56562 | 6.81606 | 1992 ft | 104 kts | 46° |
| 2026-05-04 07:24 | 51.57072 | 6.82428 | 1988 ft | 104 kts | 46° |
| 2026-05-04 07:25 | 51.57587 | 6.83258 | 1986 ft | 104 kts | 47° |
| 2026-05-04 07:26 | 51.61152 | 6.89006 | 1992 ft | 103 kts | 45° |
| 2026-05-04 07:27 | 51.61658 | 6.89825 | 1993 ft | 103 kts | 46° |
| 2026-05-04 07:27 | 51.62167 | 6.90645 | 1993 ft | 104 kts | 46° |
| 2026-05-04 07:27 | 51.62676 | 6.91469 | 1987 ft | 103 kts | 46° |
| 2026-05-04 07:27 | 51.63183 | 6.92286 | 1987 ft | 103 kts | 46° |
| 2026-05-04 07:28 | 51.63689 | 6.93105 | 1983 ft | 103 kts | 45° |
| 2026-05-04 07:28 | 51.64197 | 6.93928 | 1989 ft | 104 kts | 45° |
| 2026-05-04 07:28 | 51.64702 | 6.94745 | 1988 ft | 104 kts | 45° |
| 2026-05-04 07:28 | 51.65211 | 6.95568 | 1988 ft | 104 kts | 46° |
| 2026-05-04 07:29 | 51.65722 | 6.96395 | 1994 ft | 105 kts | 45° |
| 2026-05-04 07:29 | 51.66236 | 6.97230 | 1990 ft | 105 kts | 45° |
| 2026-05-04 07:29 | 51.66750 | 6.98063 | 1989 ft | 104 kts | 45° |
| 2026-05-04 07:29 | 51.67259 | 6.98887 | 1988 ft | 103 kts | 45° |
| 2026-05-04 07:30 | 51.67764 | 6.99703 | 1987 ft | 103 kts | 46° |
| 2026-05-04 07:30 | 51.68267 | 7.00518 | 1981 ft | 102 kts | 45° |
| 2026-05-04 07:30 | 51.68756 | 7.01312 | 1980 ft | 101 kts | 45° |
| 2026-05-04 07:30 | 51.69254 | 7.02121 | 1985 ft | 103 kts | 45° |
| 2026-05-04 07:31 | 51.69771 | 7.02961 | 1995 ft | 108 kts | 46° |
| 2026-05-04 07:31 | 51.70312 | 7.03844 | 1996 ft | 112 kts | 45° |
| 2026-05-04 07:33 | 51.74723 | 7.11024 | 1981 ft | 130 kts | 46° |
| 2026-05-04 07:33 | 51.75345 | 7.12035 | 1983 ft | 123 kts | 45° |
| 2026-05-04 07:33 | 51.75937 | 7.12998 | 1979 ft | 118 kts | 46° |
| 2026-05-04 07:33 | 51.76502 | 7.13917 | 1981 ft | 112 kts | 45° |
| 2026-05-04 07:34 | 51.77042 | 7.14798 | 1982 ft | 108 kts | 46° |
| 2026-05-04 07:34 | 51.77567 | 7.15654 | 1981 ft | 106 kts | 46° |
| 2026-05-04 07:34 | 51.78084 | 7.16499 | 1978 ft | 106 kts | 46° |
| 2026-05-04 07:34 | 51.78599 | 7.17340 | 1979 ft | 104 kts | 46° |
| 2026-05-04 07:35 | 51.79108 | 7.18171 | 1980 ft | 104 kts | 46° |
| 2026-05-04 07:35 | 51.79616 | 7.19001 | 1983 ft | 104 kts | 46° |
| 2026-05-04 07:35 | 51.80121 | 7.19825 | 1982 ft | 104 kts | 46° |
| 2026-05-04 07:35 | 51.80634 | 7.20665 | 1986 ft | 105 kts | 46° |
| 2026-05-04 07:36 | 51.81147 | 7.21503 | 1988 ft | 105 kts | 46° |
| 2026-05-04 07:36 | 51.81660 | 7.22343 | 1989 ft | 105 kts | 46° |
| 2026-05-04 07:38 | 51.85162 | 7.28081 | 1994 ft | 101 kts | 45° |
| 2026-05-04 07:38 | 51.85659 | 7.28900 | 2003 ft | 104 kts | 45° |
| 2026-05-04 07:38 | 51.86174 | 7.29745 | 2001 ft | 106 kts | 45° |
| 2026-05-04 07:38 | 51.86693 | 7.30595 | 1998 ft | 106 kts | 45° |
| 2026-05-04 07:39 | 51.87208 | 7.31441 | 1997 ft | 105 kts | 45° |
| 2026-05-04 07:39 | 51.87721 | 7.32285 | 1992 ft | 104 kts | 45° |
| 2026-05-04 07:39 | 51.88230 | 7.33120 | 1985 ft | 104 kts | 45° |
| 2026-05-04 07:39 | 51.88733 | 7.33948 | 1985 ft | 102 kts | 45° |
| 2026-05-04 07:40 | 51.89229 | 7.34763 | 1988 ft | 102 kts | 45° |
| 2026-05-04 07:40 | 51.89730 | 7.35585 | 1992 ft | 103 kts | 45° |
| 2026-05-04 07:40 | 51.90227 | 7.36405 | 1995 ft | 103 kts | 45° |
| 2026-05-04 07:40 | 51.90732 | 7.37236 | 2000 ft | 103 kts | 45° |
| 2026-05-04 07:41 | 51.91238 | 7.38069 | 1995 ft | 105 kts | 45° |
| 2026-05-04 07:41 | 51.91751 | 7.38916 | 1995 ft | 105 kts | 45° |
| 2026-05-04 07:41 | 51.92264 | 7.39760 | 1994 ft | 105 kts | 45° |
| 2026-05-04 07:41 | 51.92773 | 7.40601 | 1989 ft | 104 kts | 45° |
| 2026-05-04 07:42 | 51.93275 | 7.41427 | 1988 ft | 102 kts | 45° |
| 2026-05-04 07:42 | 51.93771 | 7.42244 | 1989 ft | 101 kts | 45° |
| 2026-05-04 07:42 | 51.94263 | 7.43058 | 1986 ft | 101 kts | 45° |
| 2026-05-04 07:42 | 51.94748 | 7.43859 | 1989 ft | 100 kts | 44° |
| 2026-05-04 07:43 | 51.95241 | 7.44674 | 1996 ft | 102 kts | 45° |
| 2026-05-04 07:43 | 51.95741 | 7.45501 | 2003 ft | 104 kts | 45° |
| 2026-05-04 07:43 | 51.96249 | 7.46340 | 2006 ft | 105 kts | 45° |
| 2026-05-04 07:43 | 51.96760 | 7.47185 | 2002 ft | 105 kts | 45° |
| 2026-05-04 07:44 | 51.97270 | 7.48029 | 2004 ft | 105 kts | 45° |
| 2026-05-04 07:44 | 51.97784 | 7.48878 | 2003 ft | 105 kts | 45° |
| 2026-05-04 07:44 | 51.98320 | 7.49768 | 1891 ft | 114 kts | 45° |
| 2026-05-04 07:44 | 51.98887 | 7.50707 | 1774 ft | 119 kts | 45° |
| 2026-05-04 07:45 | 51.99472 | 7.51678 | 1654 ft | 122 kts | 45° |
| 2026-05-04 07:45 | 52.00063 | 7.52656 | 1529 ft | 123 kts | 45° |
| 2026-05-04 07:45 | 52.00649 | 7.53627 | 1493 ft | 117 kts | 46° |
| 2026-05-04 07:45 | 52.01206 | 7.54550 | 1493 ft | 112 kts | 45° |
| 2026-05-04 07:46 | 52.01746 | 7.55444 | 1485 ft | 110 kts | 45° |
| 2026-05-04 07:46 | 52.02278 | 7.56328 | 1492 ft | 109 kts | 45° |
| 2026-05-04 07:46 | 52.02808 | 7.57205 | 1494 ft | 108 kts | 45° |
| 2026-05-04 07:46 | 52.03333 | 7.58074 | 1492 ft | 108 kts | 45° |
| 2026-05-04 07:47 | 52.03853 | 7.58940 | 1494 ft | 107 kts | 45° |
| 2026-05-04 07:47 | 52.04371 | 7.59800 | 1496 ft | 106 kts | 45° |
| 2026-05-04 07:47 | 52.04882 | 7.60651 | 1488 ft | 104 kts | 46° |
| 2026-05-04 07:49 | 52.09045 | 7.64329 | 1513 ft | 92 kts | 9° |
| 2026-05-04 07:49 | 52.09640 | 7.64513 | 1403 ft | 89 kts | 7° |
| 2026-05-04 07:49 | 52.10264 | 7.64635 | 1254 ft | 88 kts | 358° |
| 2026-05-04 07:50 | 52.10862 | 7.64506 | 1129 ft | 86 kts | 348° |
| 2026-05-04 07:50 | 52.11430 | 7.64356 | 1026 ft | 81 kts | 346° |
| 2026-05-04 07:50 | 52.11991 | 7.64212 | 956 ft | 77 kts | 354° |
| 2026-05-04 07:50 | 52.12538 | 7.64319 | 842 ft | 81 kts | 40° |
| 2026-05-04 07:51 | 52.12763 | 7.65167 | 686 ft | 80 kts | 77° |
| 2026-05-04 07:51 | 52.12934 | 7.66020 | 448 ft | 81 kts | 72° |
| 2026-05-04 07:51 | 52.13119 | 7.66866 | 216 ft | 79 kts | 71° |
| 2026-05-04 07:51 | 52.13277 | 7.67604 | 159 ft | 57 kts | 69° |
| 2026-05-04 07:52 | 52.13385 | 7.68120 | 162 ft | 34 kts | 74° |
| 2026-05-04 07:52 | 52.13358 | 7.68268 | 163 ft | 13 kts | 179° |
| 2026-05-04 07:52 | 52.13278 | 7.68309 | 161 ft | 11 kts | 165° |
| 2026-05-04 07:52 | 52.13207 | 7.68331 | 160 ft | 10 kts | 201° |
| 2026-05-04 07:53 | 52.13179 | 7.68244 | 159 ft | 8 kts | 252° |